createdAt,value
2022-09-06T03:57:35.634Z,101047.63
2022-09-06T04:00:38.278Z,101047.63
2022-09-06T04:03:41.000Z,101050.19
2022-09-06T04:06:43.111Z,101053.87
2022-09-06T04:09:45.447Z,101050.50
2022-09-06T04:12:47.504Z,101047.78
2022-09-06T04:15:50.362Z,101046.19
2022-09-06T04:18:52.438Z,101050.03
2022-09-06T04:21:54.768Z,101045.22
2022-09-06T04:24:56.838Z,101044.75
2022-09-06T04:27:59.246Z,101045.22
2022-09-06T04:31:04.923Z,101046.19
2022-09-06T04:34:07.804Z,101057.19
2022-09-06T04:37:09.955Z,101055.94
2022-09-06T04:40:12.311Z,101061.03
2022-09-06T04:43:14.421Z,101051.28
2022-09-06T04:46:19.739Z,101057.37
2022-09-06T04:49:23.606Z,101052.72
2022-09-06T04:52:29.967Z,101049.06
2022-09-06T04:55:33.879Z,101047.94
2022-09-06T04:58:36.229Z,101040.06
2022-09-06T05:01:38.298Z,101040.72
2022-09-06T05:04:40.647Z,101030.50
2022-09-06T05:07:42.720Z,101033.06
2022-09-06T05:10:45.089Z,101034.63
2022-09-06T05:13:47.714Z,101040.22
2022-09-06T05:16:53.221Z,101041.03
2022-09-06T05:19:55.353Z,101039.59
2022-09-06T05:22:57.691Z,101046.47
2022-09-06T05:25:59.754Z,101042.94
2022-09-06T05:29:02.115Z,101051.25
2022-09-06T05:32:04.418Z,101050.13
2022-09-06T05:35:07.011Z,101045.31
2022-09-06T05:38:09.090Z,101050.91
2022-09-06T05:41:11.601Z,101042.31
2022-09-06T05:44:14.418Z,101043.87
2022-09-06T05:47:16.749Z,101049.19
2022-09-06T05:50:18.834Z,101051.41
2022-09-06T05:53:21.150Z,101051.41
2022-09-06T05:56:24.577Z,101049.75
2022-09-06T05:59:26.642Z,101042.56
2022-09-06T06:02:29.086Z,101047.78
2022-09-06T06:05:31.483Z,101047.91
2022-09-06T06:08:34.994Z,101053.47
2022-09-06T06:11:37.581Z,101040.78
2022-09-06T06:14:39.711Z,101040.28
2022-09-06T06:17:42.046Z,101047.94
2022-09-06T06:20:44.102Z,101044.81
2022-09-06T06:23:49.084Z,101042.25
2022-09-06T06:26:51.324Z,101044.44
2022-09-06T06:29:53.883Z,101044.72
2022-09-06T06:32:56.325Z,101046.28
2022-09-06T06:36:01.538Z,101049.88
2022-09-06T06:39:07.371Z,101044.94
2022-09-06T06:42:12.134Z,101042.56
2022-09-06T06:45:16.166Z,101048.59
2022-09-06T06:48:18.683Z,101049.66
2022-09-06T06:51:21.998Z,101045.44
2022-09-06T06:54:24.386Z,101054.03
2022-09-06T06:57:26.734Z,101057.13
2022-09-06T07:00:29.186Z,101059.38
2022-09-06T07:03:31.278Z,101057.31
2022-09-06T07:13:33.832Z,101066.38
2022-09-06T07:16:35.969Z,101064.75
2022-09-06T07:26:26.992Z,101066.41
2022-09-06T07:29:29.050Z,101073.00
2022-09-06T07:32:34.359Z,101065.00
2022-09-06T07:35:36.417Z,101071.16
2022-09-06T07:38:38.975Z,101067.78
2022-09-06T07:41:42.449Z,101065.19
2022-09-06T07:44:44.865Z,101060.25
2022-09-06T07:47:57.356Z,101065.31
2022-09-06T07:51:20.360Z,101068.59
2022-09-06T07:54:31.145Z,101064.75
2022-09-06T07:57:33.885Z,101063.53
2022-09-06T08:00:36.297Z,101070.22
2022-09-06T08:03:38.722Z,101057.53
2022-09-06T08:10:06.209Z,101065.34
2022-09-06T08:13:08.278Z,101076.03
2022-09-06T08:16:12.426Z,101063.44
2022-09-06T08:19:14.769Z,101067.06
2022-09-06T08:22:17.156Z,101058.78
2022-09-06T08:25:19.241Z,101061.63
2022-09-06T08:28:24.460Z,101047.06
2022-09-06T08:31:30.040Z,101052.44
2022-09-06T08:34:32.457Z,101048.78
2022-09-06T08:37:34.619Z,101052.19
2022-09-06T08:40:38.674Z,101045.69
2022-09-06T08:47:20.386Z,101047.88
2022-09-06T08:50:24.950Z,101042.00
2022-09-06T08:53:27.306Z,101037.78
2022-09-06T08:56:37.763Z,101037.66
2022-09-06T08:59:42.898Z,101034.69
2022-09-06T09:02:49.338Z,101034.81
2022-09-06T09:05:53.794Z,101033.50
2022-09-06T09:09:06.780Z,101032.12
2022-09-06T09:12:15.346Z,101029.84
2022-09-06T09:15:19.622Z,101028.00
2022-09-06T09:18:26.922Z,101034.47
2022-09-06T09:21:32.872Z,101029.09
2022-09-06T09:24:36.892Z,101020.66
2022-09-06T09:27:39.647Z,101021.00
2022-09-06T09:30:53.625Z,101013.16
2022-09-06T09:33:56.183Z,101003.81
2022-09-06T09:41:03.342Z,100993.31
2022-09-06T09:44:16.282Z,100987.72
2022-09-06T10:07:24.855Z,100956.38
2022-09-06T10:10:31.041Z,100952.75
2022-09-06T10:13:34.242Z,100946.22
2022-09-06T10:16:44.905Z,100949.13
2022-09-06T10:19:48.705Z,100939.06
2022-09-06T10:22:59.821Z,100940.75
2022-09-06T10:26:22.452Z,100939.75
2022-09-06T10:29:50.145Z,100929.91
2022-09-06T10:33:01.789Z,100926.53
2022-09-06T10:36:04.766Z,100921.25
2022-09-06T10:39:30.703Z,100925.22
2022-09-06T10:42:45.454Z,100920.97
2022-09-06T10:46:02.279Z,100916.44
2022-09-06T10:49:09.726Z,100899.84
2022-09-06T10:52:20.063Z,100900.19
2022-09-06T10:55:22.806Z,100900.63
2022-09-06T11:02:05.872Z,100907.63
2022-09-06T11:08:47.758Z,100906.53
2022-09-06T11:12:21.339Z,100909.81
2022-09-06T11:15:26.857Z,100901.37
2022-09-06T11:19:05.273Z,100896.56
2022-09-06T11:22:34.692Z,100896.97
2022-09-06T11:25:55.357Z,100892.00
2022-09-06T11:29:04.237Z,100887.75
2022-09-06T11:32:44.726Z,100883.53
2022-09-06T11:35:46.905Z,100881.84
2022-09-06T11:39:01.233Z,100875.66
2022-09-06T11:42:29.876Z,100873.41
2022-09-06T11:45:51.007Z,100868.84
2022-09-06T11:49:07.964Z,100867.87
2022-09-06T11:52:52.335Z,100861.97
2022-09-06T11:56:00.111Z,100859.78
2022-09-06T11:59:18.660Z,100859.47
2022-09-06T12:02:36.288Z,100850.50
2022-09-06T12:06:21.040Z,100854.16
2022-09-06T12:09:30.609Z,100842.50
2022-09-06T12:12:39.799Z,100840.44
2022-09-06T12:15:51.847Z,100830.75
2022-09-06T12:18:56.330Z,100831.06
2022-09-06T12:21:58.418Z,100826.00
2022-09-06T12:25:03.542Z,100819.72
2022-09-06T12:28:09.586Z,100818.19
2022-09-06T12:31:39.559Z,100810.75
2022-09-06T12:34:45.113Z,100807.22
2022-09-06T12:38:06.852Z,100806.44
2022-09-06T12:41:09.015Z,100798.28
2022-09-06T12:44:13.260Z,100797.53
2022-09-06T12:47:27.350Z,100785.41
2022-09-06T12:50:31.467Z,100781.16
2022-09-06T12:53:34.770Z,100783.38
2022-09-06T12:56:37.233Z,100779.56
2022-09-06T12:59:47.822Z,100781.94
2022-09-06T13:03:21.436Z,100772.50
2022-09-06T13:06:27.376Z,100767.84
2022-09-06T13:09:31.321Z,100762.06
2022-09-06T13:12:42.725Z,100760.44
2022-09-06T13:15:46.910Z,100755.59
2022-09-06T13:18:49.390Z,100750.41
2022-09-06T13:21:51.934Z,100751.34
2022-09-06T13:24:56.508Z,100747.72
2022-09-06T13:28:01.425Z,100740.62
2022-09-06T13:31:14.247Z,100738.59
2022-09-06T13:34:22.638Z,100739.34
2022-09-06T13:37:27.397Z,100733.75
2022-09-06T13:41:06.735Z,100734.91
2022-09-06T13:44:14.692Z,100727.09
2022-09-06T13:47:17.140Z,100722.00
2022-09-06T13:50:20.674Z,100718.50
2022-09-06T13:53:25.081Z,100706.00
2022-09-06T13:56:27.554Z,100705.94
2022-09-06T13:59:31.426Z,100707.13
2022-09-06T14:02:33.566Z,100714.22
2022-09-06T14:05:38.916Z,100703.25
2022-09-06T14:09:05.870Z,100707.13
2022-09-06T14:12:06.841Z,100698.91
2022-09-06T14:15:09.921Z,100703.66
2022-09-06T14:18:14.597Z,100696.88
2022-09-06T14:21:16.831Z,100693.41
2022-09-06T14:24:19.200Z,100690.28
2022-09-06T14:27:21.894Z,100686.97
2022-09-06T14:30:24.423Z,100687.78
2022-09-06T14:33:26.500Z,100693.06
2022-09-06T14:36:31.072Z,100694.25
2022-09-06T14:39:33.198Z,100683.72
2022-09-06T14:42:35.542Z,100678.59
2022-09-06T14:45:37.657Z,100679.03
2022-09-06T14:48:42.423Z,100681.31
2022-09-06T14:51:45.862Z,100686.75
2022-09-06T14:54:48.201Z,100682.78
2022-09-06T14:57:50.472Z,100681.28
2022-09-06T15:00:52.917Z,100676.53
2022-09-06T15:03:57.569Z,100683.53
2022-09-06T15:07:00.764Z,100683.06
